Main page
METAR-TAF:

METAR-TAF

Airports :

Kota Airport

Kota, India

latitude: 25-09-36N, longitude: 075-50-44E, elevation: 273 m

Current weather observation

The report was made 2 hours and 16 minutes ago, at 01:00 UTC
Calm wind
Temperature 25°C
Humidity 54%
Pressure 1011 hPa

METAR: VIKO 190100Z 00000KT 6KM NSC 25/15 Q1011 NOSIG

Time: 08:46 (03:16 UTC)

Forecast

The report was made 4 hours and 16 minutes ago, at 23:00 UTC
Forecast valid from 19 at 00 UTC to 19 at 09 UTC
Wind 2 kt from variable directions
Visibility: 3000 m
haze
Becoming
from 19 at 04 UTC to 19 at 06 UTC
Wind 5 kt from the West
Visibility: 5000 m
Few clouds at a height of 3500 ft
haze

TAF: VIKO 182300Z 1900/1909 VRB02KT 3000 HZ NSC BECMG 1904/1906 27005KT 5000 HZ FEW035

Weather observations and forecasts of more than 4000 airports (METAR and TAF reports).

The available stations are represented by yellow and red dots on the map.

Hover mouse over dot to see the name of the station.

Then click to see weather observations and forecasts.

To change the map : click on the green buttons with a black cross to zoom in, on the green button with a dash to zoom out, or on the green arrows for adjacent maps.


METAR-TAF: